sensor_id;sensor_type;location;lat;lon;timestamp;pressure;altitude;pressure_sealevel;temperature
64916;BMP280;51427;-27.442;153.014;2023-10-31T00:02:24;101303.53;;;28.94
64916;BMP280;51427;-27.442;153.014;2023-10-31T00:04:51;101303.66;;;29.38
64916;BMP280;51427;-27.442;153.014;2023-10-31T00:07:18;101302.63;;;29.17
64916;BMP280;51427;-27.442;153.014;2023-10-31T00:09:45;101292.06;;;29.04
64916;BMP280;51427;-27.442;153.014;2023-10-31T00:12:13;101293.63;;;29.43
64916;BMP280;51427;-27.442;153.014;2023-10-31T00:14:40;101288.72;;;29.78
64916;BMP280;51427;-27.442;153.014;2023-10-31T00:17:07;101291.88;;;29.36
64916;BMP280;51427;-27.442;153.014;2023-10-31T00:19:34;101280.63;;;29.81
64916;BMP280;51427;-27.442;153.014;2023-10-31T00:22:01;101284.00;;;29.60
64916;BMP280;51427;-27.442;153.014;2023-10-31T00:24:28;101268.56;;;29.52
64916;BMP280;51427;-27.442;153.014;2023-10-31T00:26:58;101262.16;;;30.07
64916;BMP280;51427;-27.442;153.014;2023-10-31T00:29:25;101250.19;;;30.42
64916;BMP280;51427;-27.442;153.014;2023-10-31T00:31:53;101256.56;;;30.61
64916;BMP280;51427;-27.442;153.014;2023-10-31T00:34:20;101242.38;;;30.28
64916;BMP280;51427;-27.442;153.014;2023-10-31T00:36:47;101238.50;;;30.46
64916;BMP280;51427;-27.442;153.014;2023-10-31T00:39:15;101238.53;;;29.95
64916;BMP280;51427;-27.442;153.014;2023-10-31T00:41:45;101232.94;;;30.06
64916;BMP280;51427;-27.442;153.014;2023-10-31T00:44:13;101229.19;;;30.66
64916;BMP280;51427;-27.442;153.014;2023-10-31T00:46:40;101222.03;;;30.33
64916;BMP280;51427;-27.442;153.014;2023-10-31T00:49:07;101221.72;;;30.13
64916;BMP280;51427;-27.442;153.014;2023-10-31T00:51:34;101210.78;;;30.26
64916;BMP280;51427;-27.442;153.014;2023-10-31T00:54:03;101220.06;;;29.69
64916;BMP280;51427;-27.442;153.014;2023-10-31T00:56:30;101208.38;;;29.23
64916;BMP280;51427;-27.442;153.014;2023-10-31T00:58:57;101211.31;;;28.81
64916;BMP280;51427;-27.442;153.014;2023-10-31T01:01:25;101210.16;;;29.14
64916;BMP280;51427;-27.442;153.014;2023-10-31T01:03:52;101204.81;;;29.23
64916;BMP280;51427;-27.442;153.014;2023-10-31T01:06:19;101198.50;;;29.04
64916;BMP280;51427;-27.442;153.014;2023-10-31T01:08:46;101188.75;;;29.14
64916;BMP280;51427;-27.442;153.014;2023-10-31T01:11:14;101189.66;;;28.98
64916;BMP280;51427;-27.442;153.014;2023-10-31T01:13:41;101179.38;;;30.37
64916;BMP280;51427;-27.442;153.014;2023-10-31T01:16:08;101182.03;;;30.43
64916;BMP280;51427;-27.442;153.014;2023-10-31T01:18:57;101182.31;;;30.48
64916;BMP280;51427;-27.442;153.014;2023-10-31T01:21:26;101188.38;;;29.61
64916;BMP280;51427;-27.442;153.014;2023-10-31T01:23:53;101178.59;;;29.57
64916;BMP280;51427;-27.442;153.014;2023-10-31T01:26:20;101174.75;;;29.08
64916;BMP280;51427;-27.442;153.014;2023-10-31T01:28:47;101172.00;;;29.54
64916;BMP280;51427;-27.442;153.014;2023-10-31T01:31:14;101153.00;;;30.76
64916;BMP280;51427;-27.442;153.014;2023-10-31T01:33:42;101160.22;;;29.37
64916;BMP280;51427;-27.442;153.014;2023-10-31T01:36:09;101152.28;;;30.18
64916;BMP280;51427;-27.442;153.014;2023-10-31T01:38:39;101143.72;;;29.61
64916;BMP280;51427;-27.442;153.014;2023-10-31T01:41:06;101142.25;;;29.29
64916;BMP280;51427;-27.442;153.014;2023-10-31T01:43:37;101133.31;;;29.68
64916;BMP280;51427;-27.442;153.014;2023-10-31T01:46:05;101126.66;;;29.74
64916;BMP280;51427;-27.442;153.014;2023-10-31T01:48:33;101124.94;;;28.93
64916;BMP280;51427;-27.442;153.014;2023-10-31T01:51:03;101119.94;;;29.14
64916;BMP280;51427;-27.442;153.014;2023-10-31T01:53:32;101105.72;;;29.40
64916;BMP280;51427;-27.442;153.014;2023-10-31T01:56:01;101118.28;;;28.99
64916;BMP280;51427;-27.442;153.014;2023-10-31T01:58:37;101106.75;;;29.31
64916;BMP280;51427;-27.442;153.014;2023-10-31T02:01:04;101107.72;;;29.16
64916;BMP280;51427;-27.442;153.014;2023-10-31T02:03:33;101084.00;;;30.21
64916;BMP280;51427;-27.442;153.014;2023-10-31T02:06:00;101100.81;;;28.94
64916;BMP280;51427;-27.442;153.014;2023-10-31T02:08:27;101090.28;;;29.18
64916;BMP280;51427;-27.442;153.014;2023-10-31T02:10:54;101094.09;;;29.59
64916;BMP280;51427;-27.442;153.014;2023-10-31T02:13:22;101085.66;;;29.65
64916;BMP280;51427;-27.442;153.014;2023-10-31T02:15:49;101088.13;;;29.44
64916;BMP280;51427;-27.442;153.014;2023-10-31T02:18:17;101088.69;;;29.54
64916;BMP280;51427;-27.442;153.014;2023-10-31T02:20:44;101084.91;;;29.27
64916;BMP280;51427;-27.442;153.014;2023-10-31T02:23:12;101085.97;;;29.33
64916;BMP280;51427;-27.442;153.014;2023-10-31T02:25:39;101081.81;;;29.10
64916;BMP280;51427;-27.442;153.014;2023-10-31T02:28:06;101076.41;;;29.84
64916;BMP280;51427;-27.442;153.014;2023-10-31T02:31:00;101073.56;;;28.77
64916;BMP280;51427;-27.442;153.014;2023-10-31T02:33:28;101071.75;;;29.00
64916;BMP280;51427;-27.442;153.014;2023-10-31T02:35:55;101074.78;;;29.55
64916;BMP280;51427;-27.442;153.014;2023-10-31T02:38:22;101066.69;;;29.43
64916;BMP280;51427;-27.442;153.014;2023-10-31T02:40:49;101056.44;;;28.99
64916;BMP280;51427;-27.442;153.014;2023-10-31T02:43:16;101047.41;;;29.82
64916;BMP280;51427;-27.442;153.014;2023-10-31T02:45:44;101046.34;;;29.77
64916;BMP280;51427;-27.442;153.014;2023-10-31T02:48:11;101039.66;;;29.82
64916;BMP280;51427;-27.442;153.014;2023-10-31T02:50:38;101034.50;;;29.68
64916;BMP280;51427;-27.442;153.014;2023-10-31T02:53:05;101037.63;;;29.92
64916;BMP280;51427;-27.442;153.014;2023-10-31T02:56:00;101035.22;;;29.33
64916;BMP280;51427;-27.442;153.014;2023-10-31T02:58:27;101020.28;;;29.43
64916;BMP280;51427;-27.442;153.014;2023-10-31T03:00:54;101016.53;;;29.60
64916;BMP280;51427;-27.442;153.014;2023-10-31T03:03:22;101006.63;;;29.06
64916;BMP280;51427;-27.442;153.014;2023-10-31T03:05:49;101003.81;;;29.59
64916;BMP280;51427;-27.442;153.014;2023-10-31T03:08:16;100999.22;;;29.40
64916;BMP280;51427;-27.442;153.014;2023-10-31T03:10:48;100991.06;;;29.86
64916;BMP280;51427;-27.442;153.014;2023-10-31T03:13:19;100988.75;;;29.76
64916;BMP280;51427;-27.442;153.014;2023-10-31T03:15:46;100981.69;;;29.35
64916;BMP280;51427;-27.442;153.014;2023-10-31T03:18:14;100983.31;;;29.36
64916;BMP280;51427;-27.442;153.014;2023-10-31T03:20:44;100980.00;;;29.57
64916;BMP280;51427;-27.442;153.014;2023-10-31T03:23:14;100976.56;;;29.99
64916;BMP280;51427;-27.442;153.014;2023-10-31T03:25:41;100975.00;;;29.69
64916;BMP280;51427;-27.442;153.014;2023-10-31T03:28:18;100971.53;;;29.48
64916;BMP280;51427;-27.442;153.014;2023-10-31T03:30:47;100964.09;;;30.23
64916;BMP280;51427;-27.442;153.014;2023-10-31T03:33:15;100965.25;;;29.22
64916;BMP280;51427;-27.442;153.014;2023-10-31T03:35:46;100966.81;;;28.94
64916;BMP280;51427;-27.442;153.014;2023-10-31T03:38:13;100965.78;;;29.32
64916;BMP280;51427;-27.442;153.014;2023-10-31T03:40:40;100962.38;;;28.88
64916;BMP280;51427;-27.442;153.014;2023-10-31T03:43:08;100950.25;;;29.25
64916;BMP280;51427;-27.442;153.014;2023-10-31T03:45:35;100955.63;;;29.16
64916;BMP280;51427;-27.442;153.014;2023-10-31T03:48:02;100950.41;;;29.24
64916;BMP280;51427;-27.442;153.014;2023-10-31T03:50:29;100950.28;;;29.03
64916;BMP280;51427;-27.442;153.014;2023-10-31T03:52:57;100950.19;;;29.11
64916;BMP280;51427;-27.442;153.014;2023-10-31T03:55:24;100948.75;;;28.58
64916;BMP280;51427;-27.442;153.014;2023-10-31T03:57:51;100949.03;;;28.63
64916;BMP280;51427;-27.442;153.014;2023-10-31T04:00:18;100946.63;;;28.61
64916;BMP280;51427;-27.442;153.014;2023-10-31T04:02:45;100927.88;;;28.89
64916;BMP280;51427;-27.442;153.014;2023-10-31T04:05:13;100932.25;;;28.89
64916;BMP280;51427;-27.442;153.014;2023-10-31T04:07:40;100940.16;;;28.51
64916;BMP280;51427;-27.442;153.014;2023-10-31T04:10:08;100933.25;;;28.29
64916;BMP280;51427;-27.442;153.014;2023-10-31T04:12:35;100936.00;;;28.64
64916;BMP280;51427;-27.442;153.014;2023-10-31T04:15:03;100917.91;;;28.35
64916;BMP280;51427;-27.442;153.014;2023-10-31T04:17:30;100917.50;;;28.24
64916;BMP280;51427;-27.442;153.014;2023-10-31T04:19:58;100908.44;;;28.87
64916;BMP280;51427;-27.442;153.014;2023-10-31T04:22:25;100909.53;;;28.56
64916;BMP280;51427;-27.442;153.014;2023-10-31T04:24:52;100902.38;;;28.29
64916;BMP280;51427;-27.442;153.014;2023-10-31T04:27:19;100891.09;;;28.95
64916;BMP280;51427;-27.442;153.014;2023-10-31T04:29:46;100896.22;;;28.30
64916;BMP280;51427;-27.442;153.014;2023-10-31T04:32:14;100885.81;;;28.60
64916;BMP280;51427;-27.442;153.014;2023-10-31T04:34:41;100883.19;;;28.68
64916;BMP280;51427;-27.442;153.014;2023-10-31T04:37:08;100876.94;;;28.63
64916;BMP280;51427;-27.442;153.014;2023-10-31T04:39:36;100864.06;;;28.63
64916;BMP280;51427;-27.442;153.014;2023-10-31T04:42:03;100871.53;;;28.58
64916;BMP280;51427;-27.442;153.014;2023-10-31T04:44:30;100852.53;;;28.59
64916;BMP280;51427;-27.442;153.014;2023-10-31T04:46:58;100859.16;;;28.53
64916;BMP280;51427;-27.442;153.014;2023-10-31T04:49:25;100858.41;;;28.81
64916;BMP280;51427;-27.442;153.014;2023-10-31T04:51:52;100856.03;;;29.23
64916;BMP280;51427;-27.442;153.014;2023-10-31T04:54:19;100851.00;;;28.13
64916;BMP280;51427;-27.442;153.014;2023-10-31T04:56:47;100851.00;;;27.91
64916;BMP280;51427;-27.442;153.014;2023-10-31T04:59:15;100854.03;;;27.94
64916;BMP280;51427;-27.442;153.014;2023-10-31T05:01:47;100849.34;;;28.20
64916;BMP280;51427;-27.442;153.014;2023-10-31T05:04:15;100839.16;;;28.04
64916;BMP280;51427;-27.442;153.014;2023-10-31T05:06:42;100830.03;;;27.80
64916;BMP280;51427;-27.442;153.014;2023-10-31T05:09:11;100830.31;;;28.29
64916;BMP280;51427;-27.442;153.014;2023-10-31T05:11:38;100830.75;;;28.10
64916;BMP280;51427;-27.442;153.014;2023-10-31T05:14:07;100834.94;;;28.11
64916;BMP280;51427;-27.442;153.014;2023-10-31T05:16:51;100815.78;;;28.79
64916;BMP280;51427;-27.442;153.014;2023-10-31T05:19:19;100818.28;;;28.73
64916;BMP280;51427;-27.442;153.014;2023-10-31T05:21:46;100813.78;;;28.38
64916;BMP280;51427;-27.442;153.014;2023-10-31T05:24:13;100813.03;;;28.66
64916;BMP280;51427;-27.442;153.014;2023-10-31T05:26:40;100817.53;;;28.50
64916;BMP280;51427;-27.442;153.014;2023-10-31T05:29:10;100811.47;;;28.28
64916;BMP280;51427;-27.442;153.014;2023-10-31T05:31:37;100810.69;;;28.42
64916;BMP280;51427;-27.442;153.014;2023-10-31T05:34:04;100811.91;;;28.32
64916;BMP280;51427;-27.442;153.014;2023-10-31T05:36:32;100801.06;;;28.22
64916;BMP280;51427;-27.442;153.014;2023-10-31T05:38:59;100797.47;;;28.31
64916;BMP280;51427;-27.442;153.014;2023-10-31T05:41:46;100798.16;;;28.25
64916;BMP280;51427;-27.442;153.014;2023-10-31T05:44:13;100796.19;;;28.27
64916;BMP280;51427;-27.442;153.014;2023-10-31T05:46:41;100798.41;;;28.30
64916;BMP280;51427;-27.442;153.014;2023-10-31T05:49:08;100800.81;;;28.17
64916;BMP280;51427;-27.442;153.014;2023-10-31T05:51:35;100783.50;;;28.11
64916;BMP280;51427;-27.442;153.014;2023-10-31T05:54:03;100781.66;;;27.97
64916;BMP280;51427;-27.442;153.014;2023-10-31T05:56:31;100779.69;;;27.99
64916;BMP280;51427;-27.442;153.014;2023-10-31T05:58:58;100778.09;;;28.21
64916;BMP280;51427;-27.442;153.014;2023-10-31T06:01:25;100780.63;;;28.06
64916;BMP280;51427;-27.442;153.014;2023-10-31T06:03:52;100774.16;;;28.10
64916;BMP280;51427;-27.442;153.014;2023-10-31T06:06:31;100771.06;;;28.15
64916;BMP280;51427;-27.442;153.014;2023-10-31T06:09:17;100766.75;;;28.15
64916;BMP280;51427;-27.442;153.014;2023-10-31T06:11:44;100751.63;;;27.76
64916;BMP280;51427;-27.442;153.014;2023-10-31T06:14:11;100755.69;;;28.07
64916;BMP280;51427;-27.442;153.014;2023-10-31T06:16:42;100753.09;;;28.07
64916;BMP280;51427;-27.442;153.014;2023-10-31T06:19:10;100755.91;;;27.83
64916;BMP280;51427;-27.442;153.014;2023-10-31T06:21:37;100752.38;;;27.84
64916;BMP280;51427;-27.442;153.014;2023-10-31T06:24:05;100743.41;;;27.94
64916;BMP280;51427;-27.442;153.014;2023-10-31T06:26:32;100747.88;;;28.00
64916;BMP280;51427;-27.442;153.014;2023-10-31T06:29:00;100735.31;;;27.83
64916;BMP280;51427;-27.442;153.014;2023-10-31T06:31:27;100730.00;;;27.84
64916;BMP280;51427;-27.442;153.014;2023-10-31T06:33:54;100730.34;;;27.82
64916;BMP280;51427;-27.442;153.014;2023-10-31T06:36:21;100741.59;;;27.81
64916;BMP280;51427;-27.442;153.014;2023-10-31T06:38:48;100732.59;;;27.84
64916;BMP280;51427;-27.442;153.014;2023-10-31T06:41:15;100746.84;;;27.87
64916;BMP280;51427;-27.442;153.014;2023-10-31T06:43:43;100750.38;;;27.72
64916;BMP280;51427;-27.442;153.014;2023-10-31T06:46:10;100750.97;;;27.59
64916;BMP280;51427;-27.442;153.014;2023-10-31T06:48:37;100747.09;;;27.78
64916;BMP280;51427;-27.442;153.014;2023-10-31T06:51:04;100748.00;;;27.84
64916;BMP280;51427;-27.442;153.014;2023-10-31T06:53:32;100753.56;;;27.74
64916;BMP280;51427;-27.442;153.014;2023-10-31T06:55:59;100748.25;;;27.53
64916;BMP280;51427;-27.442;153.014;2023-10-31T06:58:26;100753.19;;;27.62
64916;BMP280;51427;-27.442;153.014;2023-10-31T07:00:53;100753.38;;;27.61
64916;BMP280;51427;-27.442;153.014;2023-10-31T07:03:21;100763.00;;;27.59
64916;BMP280;51427;-27.442;153.014;2023-10-31T07:05:48;100754.16;;;27.61
64916;BMP280;51427;-27.442;153.014;2023-10-31T07:08:15;100757.97;;;27.65
64916;BMP280;51427;-27.442;153.014;2023-10-31T07:10:43;100748.84;;;27.63
64916;BMP280;51427;-27.442;153.014;2023-10-31T07:13:40;100752.47;;;27.68
64916;BMP280;51427;-27.442;153.014;2023-10-31T07:16:33;100761.00;;;27.69
64916;BMP280;51427;-27.442;153.014;2023-10-31T07:19:33;100769.13;;;27.58
64916;BMP280;51427;-27.442;153.014;2023-10-31T07:22:00;100763.88;;;27.43
64916;BMP280;51427;-27.442;153.014;2023-10-31T07:24:28;100769.19;;;27.42
64916;BMP280;51427;-27.442;153.014;2023-10-31T07:26:55;100773.59;;;27.34
64916;BMP280;51427;-27.442;153.014;2023-10-31T07:29:23;100763.19;;;27.27
64916;BMP280;51427;-27.442;153.014;2023-10-31T07:31:55;100773.34;;;27.21
64916;BMP280;51427;-27.442;153.014;2023-10-31T07:34:22;100785.94;;;27.08
64916;BMP280;51427;-27.442;153.014;2023-10-31T07:36:50;100782.91;;;27.04
64916;BMP280;51427;-27.442;153.014;2023-10-31T07:39:17;100787.44;;;26.94
64916;BMP280;51427;-27.442;153.014;2023-10-31T07:41:44;100790.69;;;26.89
64916;BMP280;51427;-27.442;153.014;2023-10-31T07:44:12;100786.81;;;26.85
64916;BMP280;51427;-27.442;153.014;2023-10-31T07:46:39;100802.91;;;26.79
64916;BMP280;51427;-27.442;153.014;2023-10-31T07:49:06;100805.28;;;26.80
64916;BMP280;51427;-27.442;153.014;2023-10-31T07:51:34;100793.59;;;26.70
64916;BMP280;51427;-27.442;153.014;2023-10-31T07:54:01;100805.31;;;26.72
64916;BMP280;51427;-27.442;153.014;2023-10-31T07:56:28;100809.19;;;26.60
64916;BMP280;51427;-27.442;153.014;2023-10-31T07:58:56;100825.22;;;26.62
64916;BMP280;51427;-27.442;153.014;2023-10-31T08:01:54;100846.41;;;26.56
64916;BMP280;51427;-27.442;153.014;2023-10-31T08:04:21;100855.72;;;26.65
64916;BMP280;51427;-27.442;153.014;2023-10-31T08:06:48;100869.69;;;26.47
64916;BMP280;51427;-27.442;153.014;2023-10-31T08:09:15;100903.06;;;26.63
64916;BMP280;51427;-27.442;153.014;2023-10-31T08:11:42;100917.81;;;26.45
64916;BMP280;51427;-27.442;153.014;2023-10-31T08:14:09;100928.56;;;26.33
64916;BMP280;51427;-27.442;153.014;2023-10-31T08:16:37;100923.28;;;26.26
64916;BMP280;51427;-27.442;153.014;2023-10-31T08:19:04;100897.91;;;26.07
64916;BMP280;51427;-27.442;153.014;2023-10-31T08:21:41;100878.59;;;25.72
64916;BMP280;51427;-27.442;153.014;2023-10-31T08:24:11;100854.84;;;25.62
64916;BMP280;51427;-27.442;153.014;2023-10-31T08:26:39;100868.56;;;25.45
64916;BMP280;51427;-27.442;153.014;2023-10-31T08:29:07;100880.91;;;25.42
64916;BMP280;51427;-27.442;153.014;2023-10-31T08:34:56;100946.38;;;25.44
64916;BMP280;51427;-27.442;153.014;2023-10-31T08:37:24;100961.09;;;25.34
64916;BMP280;51427;-27.442;153.014;2023-10-31T08:39:51;100964.94;;;25.38
64916;BMP280;51427;-27.442;153.014;2023-10-31T08:42:18;100952.44;;;25.35
64916;BMP280;51427;-27.442;153.014;2023-10-31T08:44:46;100951.41;;;25.20
64916;BMP280;51427;-27.442;153.014;2023-10-31T08:47:13;100953.63;;;25.15
64916;BMP280;51427;-27.442;153.014;2023-10-31T08:49:40;100951.06;;;25.15
64916;BMP280;51427;-27.442;153.014;2023-10-31T08:52:08;100957.72;;;25.08
64916;BMP280;51427;-27.442;153.014;2023-10-31T08:54:35;100943.63;;;25.05
64916;BMP280;51427;-27.442;153.014;2023-10-31T08:57:02;100941.28;;;24.94
64916;BMP280;51427;-27.442;153.014;2023-10-31T08:59:29;100932.44;;;24.88
64916;BMP280;51427;-27.442;153.014;2023-10-31T09:01:56;100937.41;;;24.90
64916;BMP280;51427;-27.442;153.014;2023-10-31T09:04:23;100947.97;;;24.87
64916;BMP280;51427;-27.442;153.014;2023-10-31T09:06:51;100948.09;;;24.85
64916;BMP280;51427;-27.442;153.014;2023-10-31T09:09:18;100942.47;;;24.82
64916;BMP280;51427;-27.442;153.014;2023-10-31T09:11:45;100927.44;;;24.79
64916;BMP280;51427;-27.442;153.014;2023-10-31T09:14:12;100934.59;;;24.75
64916;BMP280;51427;-27.442;153.014;2023-10-31T09:16:40;100917.47;;;24.76
64916;BMP280;51427;-27.442;153.014;2023-10-31T09:19:07;100920.03;;;24.76
64916;BMP280;51427;-27.442;153.014;2023-10-31T09:21:34;100945.00;;;24.74
64916;BMP280;51427;-27.442;153.014;2023-10-31T09:24:02;100946.75;;;24.73
64916;BMP280;51427;-27.442;153.014;2023-10-31T09:26:29;100958.72;;;24.73
64916;BMP280;51427;-27.442;153.014;2023-10-31T09:28:57;100961.44;;;24.71
64916;BMP280;51427;-27.442;153.014;2023-10-31T09:31:24;100948.72;;;24.62
64916;BMP280;51427;-27.442;153.014;2023-10-31T09:33:51;100944.38;;;24.55
64916;BMP280;51427;-27.442;153.014;2023-10-31T09:36:20;100933.31;;;24.54
64916;BMP280;51427;-27.442;153.014;2023-10-31T09:38:47;100928.13;;;24.46
64916;BMP280;51427;-27.442;153.014;2023-10-31T09:41:14;100923.09;;;24.37
64916;BMP280;51427;-27.442;153.014;2023-10-31T09:43:41;100932.53;;;24.36
64916;BMP280;51427;-27.442;153.014;2023-10-31T09:46:09;100932.97;;;24.49
64916;BMP280;51427;-27.442;153.014;2023-10-31T09:48:37;100956.63;;;24.51
64916;BMP280;51427;-27.442;153.014;2023-10-31T09:51:06;100970.41;;;24.50
64916;BMP280;51427;-27.442;153.014;2023-10-31T09:53:37;100963.00;;;24.47
64916;BMP280;51427;-27.442;153.014;2023-10-31T09:56:07;100951.94;;;24.29
64916;BMP280;51427;-27.442;153.014;2023-10-31T09:58:35;100947.94;;;24.27
64916;BMP280;51427;-27.442;153.014;2023-10-31T10:01:02;100964.16;;;24.35
64916;BMP280;51427;-27.442;153.014;2023-10-31T10:03:30;100956.03;;;24.22
64916;BMP280;51427;-27.442;153.014;2023-10-31T10:05:57;100944.19;;;24.21
64916;BMP280;51427;-27.442;153.014;2023-10-31T10:08:24;100954.50;;;24.29
64916;BMP280;51427;-27.442;153.014;2023-10-31T10:10:52;100939.72;;;24.23
64916;BMP280;51427;-27.442;153.014;2023-10-31T10:13:20;100958.78;;;24.38
64916;BMP280;51427;-27.442;153.014;2023-10-31T10:15:49;100964.13;;;24.18
64916;BMP280;51427;-27.442;153.014;2023-10-31T10:18:35;100958.81;;;24.12
64916;BMP280;51427;-27.442;153.014;2023-10-31T10:21:05;100974.09;;;24.21
64916;BMP280;51427;-27.442;153.014;2023-10-31T10:23:32;100957.47;;;24.08
64916;BMP280;51427;-27.442;153.014;2023-10-31T10:26:01;100963.28;;;24.10
64916;BMP280;51427;-27.442;153.014;2023-10-31T10:28:28;100967.41;;;24.11
64916;BMP280;51427;-27.442;153.014;2023-10-31T10:30:56;100981.97;;;24.10
64916;BMP280;51427;-27.442;153.014;2023-10-31T10:33:23;100974.41;;;23.91
64916;BMP280;51427;-27.442;153.014;2023-10-31T10:35:54;100968.03;;;23.95
64916;BMP280;51427;-27.442;153.014;2023-10-31T10:38:23;100964.69;;;23.95
64916;BMP280;51427;-27.442;153.014;2023-10-31T10:40:50;100960.81;;;23.91
64916;BMP280;51427;-27.442;153.014;2023-10-31T10:43:25;100967.81;;;23.89
64916;BMP280;51427;-27.442;153.014;2023-10-31T10:45:58;100976.13;;;23.91
64916;BMP280;51427;-27.442;153.014;2023-10-31T10:48:27;100979.75;;;23.98
64916;BMP280;51427;-27.442;153.014;2023-10-31T10:51:08;100970.38;;;23.89
64916;BMP280;51427;-27.442;153.014;2023-10-31T10:54:02;100975.75;;;23.86
64916;BMP280;51427;-27.442;153.014;2023-10-31T10:56:38;100995.69;;;24.09
64916;BMP280;51427;-27.442;153.014;2023-10-31T10:59:21;101005.31;;;23.98
64916;BMP280;51427;-27.442;153.014;2023-10-31T11:01:51;101005.44;;;23.96
64916;BMP280;51427;-27.442;153.014;2023-10-31T11:04:20;101004.88;;;24.02
64916;BMP280;51427;-27.442;153.014;2023-10-31T11:06:47;100996.53;;;24.00
64916;BMP280;51427;-27.442;153.014;2023-10-31T11:09:15;101000.22;;;24.15
64916;BMP280;51427;-27.442;153.014;2023-10-31T11:11:44;100990.84;;;24.06
64916;BMP280;51427;-27.442;153.014;2023-10-31T11:14:16;100997.38;;;23.74
64916;BMP280;51427;-27.442;153.014;2023-10-31T11:16:49;101002.00;;;23.42
64916;BMP280;51427;-27.442;153.014;2023-10-31T11:19:18;100982.66;;;23.49
64916;BMP280;51427;-27.442;153.014;2023-10-31T11:22:05;100981.97;;;23.47
64916;BMP280;51427;-27.442;153.014;2023-10-31T11:24:36;100976.69;;;23.58
64916;BMP280;51427;-27.442;153.014;2023-10-31T11:27:06;100970.84;;;23.75
64916;BMP280;51427;-27.442;153.014;2023-10-31T11:29:35;100975.16;;;23.74
64916;BMP280;51427;-27.442;153.014;2023-10-31T11:32:03;100974.81;;;23.60
64916;BMP280;51427;-27.442;153.014;2023-10-31T11:34:31;100972.28;;;23.51
64916;BMP280;51427;-27.442;153.014;2023-10-31T11:37:19;100974.47;;;23.36
64916;BMP280;51427;-27.442;153.014;2023-10-31T11:40:22;100974.56;;;23.63
64916;BMP280;51427;-27.442;153.014;2023-10-31T11:43:01;100982.88;;;23.65
64916;BMP280;51427;-27.442;153.014;2023-10-31T11:45:42;101002.38;;;23.57
64916;BMP280;51427;-27.442;153.014;2023-10-31T11:48:15;100999.31;;;23.44
64916;BMP280;51427;-27.442;153.014;2023-10-31T11:50:42;101005.78;;;23.48
64916;BMP280;51427;-27.442;153.014;2023-10-31T11:53:12;100995.38;;;23.22
64916;BMP280;51427;-27.442;153.014;2023-10-31T11:55:46;100990.34;;;23.40
64916;BMP280;51427;-27.442;153.014;2023-10-31T11:58:24;101004.28;;;23.45
64916;BMP280;51427;-27.442;153.014;2023-10-31T12:01:04;101003.50;;;23.45
64916;BMP280;51427;-27.442;153.014;2023-10-31T12:06:11;100991.72;;;23.25
64916;BMP280;51427;-27.442;153.014;2023-10-31T12:08:42;100982.59;;;23.22
64916;BMP280;51427;-27.442;153.014;2023-10-31T12:11:11;100990.13;;;23.15
64916;BMP280;51427;-27.442;153.014;2023-10-31T12:13:40;100982.34;;;23.16
64916;BMP280;51427;-27.442;153.014;2023-10-31T12:16:11;100975.88;;;23.21
64916;BMP280;51427;-27.442;153.014;2023-10-31T12:18:39;100965.72;;;23.03
64916;BMP280;51427;-27.442;153.014;2023-10-31T12:21:06;100969.69;;;23.15
64916;BMP280;51427;-27.442;153.014;2023-10-31T12:23:35;100973.41;;;22.93
64916;BMP280;51427;-27.442;153.014;2023-10-31T12:26:02;100984.53;;;22.92
64916;BMP280;51427;-27.442;153.014;2023-10-31T12:28:29;100989.75;;;22.72
64916;BMP280;51427;-27.442;153.014;2023-10-31T12:30:56;100993.09;;;22.63
64916;BMP280;51427;-27.442;153.014;2023-10-31T12:33:28;101054.09;;;23.13
64916;BMP280;51427;-27.442;153.014;2023-10-31T12:36:01;101039.16;;;22.71
64916;BMP280;51427;-27.442;153.014;2023-10-31T12:38:29;101064.03;;;22.97
64916;BMP280;51427;-27.442;153.014;2023-10-31T12:40:57;101043.22;;;23.02
64916;BMP280;51427;-27.442;153.014;2023-10-31T12:43:24;101061.34;;;22.99
64916;BMP280;51427;-27.442;153.014;2023-10-31T12:45:52;101074.50;;;23.04
64916;BMP280;51427;-27.442;153.014;2023-10-31T12:48:24;101090.66;;;22.95
64916;BMP280;51427;-27.442;153.014;2023-10-31T12:51:06;101115.38;;;23.22
64916;BMP280;51427;-27.442;153.014;2023-10-31T12:53:36;101079.63;;;23.13
64916;BMP280;51427;-27.442;153.014;2023-10-31T12:56:03;101108.91;;;23.19
64916;BMP280;51427;-27.442;153.014;2023-10-31T12:58:30;101093.34;;;23.21
64916;BMP280;51427;-27.442;153.014;2023-10-31T13:00:58;101103.28;;;23.24
64916;BMP280;51427;-27.442;153.014;2023-10-31T13:03:25;101094.66;;;23.25
64916;BMP280;51427;-27.442;153.014;2023-10-31T13:05:53;101105.16;;;23.22
64916;BMP280;51427;-27.442;153.014;2023-10-31T13:08:22;101101.91;;;23.20
64916;BMP280;51427;-27.442;153.014;2023-10-31T13:10:50;101119.13;;;23.00
64916;BMP280;51427;-27.442;153.014;2023-10-31T13:13:19;101130.00;;;23.30
64916;BMP280;51427;-27.442;153.014;2023-10-31T13:15:46;101125.56;;;23.41
64916;BMP280;51427;-27.442;153.014;2023-10-31T13:18:13;101124.47;;;23.44
64916;BMP280;51427;-27.442;153.014;2023-10-31T13:20:41;101139.41;;;23.20
64916;BMP280;51427;-27.442;153.014;2023-10-31T13:23:08;101134.97;;;23.03
64916;BMP280;51427;-27.442;153.014;2023-10-31T13:25:35;101135.50;;;23.16
64916;BMP280;51427;-27.442;153.014;2023-10-31T13:28:03;101122.19;;;23.31
64916;BMP280;51427;-27.442;153.014;2023-10-31T13:30:33;101114.03;;;23.19
64916;BMP280;51427;-27.442;153.014;2023-10-31T13:33:00;101116.56;;;23.19
64916;BMP280;51427;-27.442;153.014;2023-10-31T13:35:28;101110.53;;;23.01
64916;BMP280;51427;-27.442;153.014;2023-10-31T13:37:55;101114.69;;;23.02
64916;BMP280;51427;-27.442;153.014;2023-10-31T13:40:22;101132.81;;;22.99